Time;durP1;ratioP1;P1;durP2;ratioP2;P2;SDS_P1;SDS_P2;PMS_P1;PMS_P2;Temp;Humidity;BMP_temperature;BMP_pressure;BME280_temperature;BME280_humidity;BME280_pressure;Samples;Min_cycle;Max_cycle;Signal;HPM_P1;HPM_P2
2022/06/16 00:01:43;;;;;;;12.43;4.80;;;;;;;18.28;63.52;99368.13;5066350;28;20040;-56
2022/06/16 00:04:08;;;;;;;8.60;4.80;;;;;;;18.14;64.06;99369.13;5066890;28;20045;-57
2022/06/16 00:06:33;;;;;;;10.93;5.20;;;;;;;18.12;63.94;99363.97;5067150;28;20233;-57
2022/06/16 00:08:59;;;;;;;7.72;5.00;;;;;;;18.08;64.37;99368.38;5066863;28;20329;-56
2022/06/16 00:11:24;;;;;;;9.38;5.25;;;;;;;18.24;63.90;99366.28;5048866;28;20029;-56
2022/06/16 00:13:51;;;;;;;9.43;5.00;;;;;;;18.28;64.04;99368.13;5048896;28;20375;-56
2022/06/16 00:16:16;;;;;;;13.45;5.63;;;;;;;18.13;64.54;99367.50;5067152;28;20102;-57
2022/06/16 00:18:42;;;;;;;11.90;4.93;;;;;;;17.94;65.04;99372.84;5064929;28;20464;-56
2022/06/16 00:21:07;;;;;;;17.02;5.38;;;;;;;18.09;64.28;99375.41;5066826;28;20371;-56
2022/06/16 00:23:33;;;;;;;11.13;5.43;;;;;;;18.16;64.40;99370.44;5047050;28;20031;-56
2022/06/16 00:25:58;;;;;;;12.98;5.70;;;;;;;18.14;64.10;99371.81;5066847;28;20077;-56
2022/06/16 00:28:24;;;;;;;12.45;5.45;;;;;;;18.08;64.54;99365.66;5067763;28;20032;-56
2022/06/16 00:30:49;;;;;;;10.15;5.20;;;;;;;17.97;64.92;99366.84;5069085;28;20037;-56
2022/06/16 00:33:15;;;;;;;16.20;5.82;;;;;;;17.94;64.66;99367.44;5073665;28;20028;-56
2022/06/16 00:35:40;;;;;;;14.85;5.75;;;;;;;17.83;65.15;99370.25;5070918;28;20131;-56
2022/06/16 00:38:06;;;;;;;18.23;5.68;;;;;;;17.91;65.04;99373.44;5069857;28;20028;-56
2022/06/16 00:40:31;;;;;;;11.00;5.18;;;;;;;18.03;64.25;99371.13;5070918;28;20463;-57
2022/06/16 00:42:56;;;;;;;12.50;5.30;;;;;;;17.91;64.55;99373.44;5071649;28;20268;-56
2022/06/16 00:45:53;;;;;;;12.40;5.60;;;;;;;17.87;64.96;99378.59;5071051;28;20028;-56
2022/06/16 00:48:32;;;;;;;12.68;5.60;;;;;;;17.87;64.88;99373.19;5068006;28;20024;-56
2022/06/16 00:51:07;;;;;;;16.38;6.05;;;;;;;17.74;65.46;99373.84;5067901;28;20485;-55
2022/06/16 00:53:33;;;;;;;14.25;5.50;;;;;;;17.75;65.30;99384.41;5041384;28;20021;-56
2022/06/16 00:55:58;;;;;;;7.68;5.03;;;;;;;17.75;65.54;99383.59;5069689;28;20027;-56
2022/06/16 00:58:24;;;;;;;13.98;4.90;;;;;;;17.69;65.43;99375.50;5051865;28;20332;-57
2022/06/16 01:00:50;;;;;;;16.38;6.20;;;;;;;17.64;65.69;99374.75;5030890;28;20498;-56
2022/06/16 01:04:51;;;;;;;14.48;5.65;;;;;;;17.57;66.05;99377.81;5035787;28;20059;-56
2022/06/16 01:06:02;;;;;;;15.98;5.35;;;;;;;17.57;65.94;99385.09;5068136;28;20111;-56
2022/06/16 01:08:28;;;;;;;9.45;5.22;;;;;;;17.51;65.97;99386.25;5068449;28;20033;-57
2022/06/16 01:10:53;;;;;;;15.80;6.07;;;;;;;17.53;66.13;99381.38;5067982;28;20572;-56
2022/06/16 01:13:41;;;;;;;16.58;5.50;;;;;;;17.53;66.14;99392.19;5053102;28;20017;-56
2022/06/16 01:16:26;;;;;;;13.02;5.80;;;;;;;17.45;65.91;99394.44;5031670;28;20476;-57
2022/06/16 01:19:33;;;;;;;11.88;5.30;;;;;;;17.53;66.03;99392.19;5057380;28;20027;-56
2022/06/16 01:22:03;;;;;;;10.23;5.30;;;;;;;17.50;66.16;99395.47;5050356;28;20033;-56
2022/06/16 01:24:54;;;;;;;15.88;4.78;;;;;;;17.53;65.90;99394.91;5052886;28;20028;-56
2022/06/16 01:27:29;;;;;;;12.70;5.65;;;;;;;17.45;66.14;99393.63;5049023;28;20033;-58
2022/06/16 01:30:06;;;;;;;9.85;5.20;;;;;;;17.59;65.91;99393.75;5064736;28;20039;-56
2022/06/16 01:32:53;;;;;;;9.00;5.10;;;;;;;17.52;66.18;99393.28;5070086;28;20505;-56
2022/06/16 01:35:31;;;;;;;12.02;5.20;;;;;;;17.44;66.10;99392.78;5070177;28;20107;-56
2022/06/16 01:37:56;;;;;;;14.25;4.72;;;;;;;17.48;65.96;99392.25;5067355;28;20021;-56
2022/06/16 01:40:40;;;;;;;12.40;5.25;;;;;;;17.59;64.99;99393.75;5068611;28;20091;-55
2022/06/16 01:43:38;;;;;;;12.10;5.22;;;;;;;17.51;65.37;99399.81;5025615;28;20382;-57
2022/06/16 01:46:23;;;;;;;12.40;5.25;;;;;;;17.56;64.76;99394.34;5068791;28;20036;-57
2022/06/16 01:48:50;;;;;;;12.38;5.28;;;;;;;17.50;65.53;99396.28;5068432;28;20063;-56
2022/06/16 01:51:26;;;;;;;11.02;5.10;;;;;;;17.44;66.51;99398.22;5026452;28;20029;-57
2022/06/16 01:53:55;;;;;;;15.55;5.32;;;;;;;17.15;67.60;99397.38;5037612;28;20414;-56
2022/06/16 01:56:42;;;;;;;11.13;5.93;;;;;;;16.89;69.32;99400.22;5023473;28;20104;-56
2022/06/16 01:59:14;;;;;;;9.85;5.20;;;;;;;16.77;69.17;99394.31;5051291;28;20024;-56
2022/06/16 02:01:42;;;;;;;10.32;5.10;;;;;;;17.19;66.26;99393.78;5035633;28;20025;-56
2022/06/16 02:04:13;;;;;;;9.52;5.25;;;;;;;17.28;65.37;99401.34;5039690;28;20044;-56
2022/06/16 02:06:41;;;;;;;9.05;5.30;;;;;;;17.33;65.83;99398.59;5023973;28;20035;-56
2022/06/16 02:09:10;;;;;;;9.95;5.45;;;;;;;17.21;66.21;99407.06;5032880;28;20097;-56
2022/06/16 02:11:35;;;;;;;12.43;5.78;;;;;;;17.25;65.45;99410.84;5046737;28;20098;-56
2022/06/16 02:14:30;;;;;;;12.70;6.10;;;;;;;17.28;65.79;99415.69;5045581;28;20032;-56
2022/06/16 02:16:56;;;;;;;9.27;5.30;;;;;;;17.45;64.05;99426.13;5040834;28;20118;-56
2022/06/16 02:19:22;;;;;;;12.43;5.20;;;;;;;17.53;63.44;99416.59;5050801;28;20169;-56
2022/06/16 02:21:49;;;;;;;16.88;7.70;;;;;;;17.41;63.92;99415.03;5067981;28;20035;-57
2022/06/16 02:24:17;;;;;;;15.23;5.60;;;;;;;17.28;64.75;99423.00;5034072;28;20498;-57
2022/06/16 02:26:42;;;;;;;12.95;5.15;;;;;;;17.20;64.92;99425.22;5067443;28;20024;-56
2022/06/16 02:29:34;;;;;;;19.75;5.97;;;;;;;17.16;64.65;99426.06;5049808;28;20032;-56
2022/06/16 02:32:08;;;;;;;13.38;5.60;;;;;;;17.18;64.40;99426.59;5065207;28;20482;-56
2022/06/16 02:34:40;;;;;;;17.55;5.15;;;;;;;17.24;64.33;99430.88;5051341;28;20075;-57
2022/06/16 02:37:18;;;;;;;10.43;4.90;;;;;;;17.14;64.25;99437.16;5068268;28;20123;-55
2022/06/16 02:40:22;;;;;;;11.68;5.28;;;;;;;17.28;63.85;99437.38;5046961;28;20036;-56
2022/06/16 02:43:36;;;;;;;12.40;5.63;;;;;;;17.24;63.21;99436.28;5068113;28;20241;-56
2022/06/16 02:46:07;;;;;;;10.65;5.18;;;;;;;17.17;63.65;99438.50;5048547;28;20039;-56
2022/06/16 02:48:56;;;;;;;18.15;4.78;;;;;;;17.18;62.88;99438.22;4999646;28;20437;-56
2022/06/16 02:51:50;;;;;;;14.95;5.50;;;;;;;17.17;62.65;99435.78;5046515;28;20028;-56
2022/06/16 02:54:42;;;;;;;10.40;4.70;;;;;;;17.10;63.40;99432.59;5052944;28;20047;-56
2022/06/16 02:57:59;;;;;;;12.40;4.95;;;;;;;17.10;63.22;99435.28;5045809;28;20463;-56
2022/06/16 03:00:27;;;;;;;9.45;4.95;;;;;;;17.21;62.35;99439.56;5017654;28;20106;-55
2022/06/16 03:02:53;;;;;;;11.60;5.07;;;;;;;17.08;64.43;99448.34;5049907;28;20108;-56
2022/06/16 03:05:18;;;;;;;16.38;4.95;;;;;;;17.10;63.08;99446.13;5068135;28;20028;-55
2022/06/16 03:07:44;;;;;;;11.27;5.05;;;;;;;17.09;63.53;99439.09;5066472;28;20016;-56
2022/06/16 03:10:11;;;;;;;14.18;5.10;;;;;;;17.04;63.34;99443.44;5034302;28;20062;-55
2022/06/16 03:12:38;;;;;;;12.52;5.18;;;;;;;16.98;62.72;99436.47;5041316;28;20025;-56
2022/06/16 03:15:04;;;;;;;10.27;4.80;;;;;;;17.03;62.90;99447.25;5068046;28;20028;-57
2022/06/16 03:17:31;;;;;;;15.95;4.90;;;;;;;16.96;62.78;99441.34;5067922;28;20484;-56
2022/06/16 03:19:57;;;;;;;13.98;4.97;;;;;;;16.98;63.00;99439.16;5069634;28;20036;-56
2022/06/16 03:22:22;;;;;;;8.43;4.90;;;;;;;17.03;62.45;99444.56;5067755;28;20032;-57
2022/06/16 03:24:48;;;;;;;13.45;5.38;;;;;;;16.85;63.21;99445.19;5067391;28;20033;-57
2022/06/16 03:27:13;;;;;;;11.13;5.13;;;;;;;16.79;63.96;99449.81;5066797;28;20028;-57
2022/06/16 03:29:39;;;;;;;12.95;5.53;;;;;;;16.63;64.70;99450.16;5068552;28;20089;-56
2022/06/16 03:32:05;;;;;;;12.20;5.13;;;;;;;16.54;64.95;99464.22;5051942;28;20045;-57
2022/06/16 03:34:30;;;;;;;12.75;5.20;;;;;;;16.51;65.08;99462.06;5050526;28;20029;-57
2022/06/16 03:36:56;;;;;;;9.57;5.45;;;;;;;16.49;65.13;99472.34;5067527;28;20066;-56
2022/06/16 03:39:21;;;;;;;9.88;5.15;;;;;;;16.44;65.31;99469.66;5066707;28;20017;-58
2022/06/16 03:41:46;;;;;;;10.73;5.05;;;;;;;16.39;65.64;99475.09;5067674;28;20078;-57
2022/06/16 03:44:12;;;;;;;12.27;5.38;;;;;;;16.32;65.85;99474.56;5067614;28;20402;-57
2022/06/16 03:46:37;;;;;;;9.88;4.97;;;;;;;16.29;66.08;99470.53;5067891;28;20041;-55
2022/06/16 03:49:03;;;;;;;11.85;5.45;;;;;;;16.37;65.80;99482.66;5033647;28;20025;-56
2022/06/16 03:51:29;;;;;;;15.05;5.53;;;;;;;16.33;66.23;99477.00;5068042;28;20021;-56
2022/06/16 03:53:54;;;;;;;12.20;5.25;;;;;;;16.31;66.31;99478.38;5068046;28;20374;-57
2022/06/16 03:56:19;;;;;;;12.07;4.82;;;;;;;16.35;65.96;99479.47;5068134;28;20020;-57
2022/06/16 03:58:45;;;;;;;10.38;5.20;;;;;;;16.39;66.24;99477.81;5067981;28;20379;-57
2022/06/16 04:01:10;;;;;;;14.00;5.65;;;;;;;16.45;65.88;99474.00;5068754;28;20459;-57
2022/06/16 04:06:19;;;;;;;9.38;5.45;;;;;;;17.27;63.16;99484.47;5067540;28;20086;-56
2022/06/16 04:08:45;;;;;;;9.80;4.68;;;;;;;18.19;60.40;99486.50;5038432;28;20402;-56
2022/06/16 04:11:29;;;;;;;11.48;4.97;;;;;;;18.72;59.02;99481.06;5045810;28;20025;-56
2022/06/16 04:14:00;;;;;;;8.68;4.70;;;;;;;18.13;59.91;99482.22;5046513;28;20340;-56
2022/06/16 04:16:27;;;;;;;10.55;4.55;;;;;;;17.87;60.61;99498.75;5048483;28;20033;-56
2022/06/16 04:18:52;;;;;;;12.68;5.18;;;;;;;17.70;61.71;99490.16;5029368;28;20017;-56
2022/06/16 04:21:18;;;;;;;11.35;5.00;;;;;;;18.92;57.93;99495.47;5029890;28;20028;-56
2022/06/16 04:23:43;;;;;;;10.93;4.68;;;;;;;19.83;55.46;99503.44;5029405;28;20495;-57
2022/06/16 04:26:09;;;;;;;11.50;4.78;;;;;;;21.08;51.91;99504.41;5047594;28;20048;-55
2022/06/16 04:28:34;;;;;;;8.25;4.50;;;;;;;20.59;52.63;99514.09;5048865;28;20048;-57
2022/06/16 04:31:00;;;;;;;12.07;4.50;;;;;;;19.94;53.60;99517.69;5047295;28;20029;-57
2022/06/16 04:33:25;;;;;;;10.13;4.82;;;;;;;20.65;51.46;99515.63;5047073;28;20098;-57
2022/06/16 04:35:51;;;;;;;9.65;4.65;;;;;;;20.91;52.38;99515.91;5047006;28;20095;-57
2022/06/16 04:38:17;;;;;;;10.65;4.43;;;;;;;20.28;52.62;99525.53;5046986;28;20028;-56
2022/06/16 04:40:42;;;;;;;9.82;4.85;;;;;;;20.32;53.13;99523.84;5047431;28;20459;-57
2022/06/16 04:43:08;;;;;;;10.55;4.82;;;;;;;20.97;51.41;99514.72;5047569;28;20045;-56
2022/06/16 04:45:33;;;;;;;17.30;4.88;;;;;;;21.88;49.41;99521.16;5047487;28;20036;-56
2022/06/16 04:47:58;;;;;;;11.52;4.70;;;;;;;21.74;49.42;99532.09;5046505;28;20032;-56
2022/06/16 04:50:24;;;;;;;11.00;4.55;;;;;;;20.03;53.21;99529.50;5046876;28;20192;-57
2022/06/16 04:52:49;;;;;;;13.73;5.05;;;;;;;20.00;54.27;99530.91;5045552;28;20048;-56
2022/06/16 04:55:15;;;;;;;10.80;4.50;;;;;;;21.18;51.28;99525.19;5047582;28;20029;-56
2022/06/16 04:57:41;;;;;;;13.20;4.75;;;;;;;22.50;48.17;99523.94;5047137;28;20463;-57
2022/06/16 05:00:07;;;;;;;8.85;4.53;;;;;;;24.26;44.42;99538.34;5047365;28;20029;-57
2022/06/16 05:02:32;;;;;;;9.27;4.45;;;;;;;24.09;44.80;99541.13;5020984;28;20025;-57
2022/06/16 05:04:57;;;;;;;11.23;4.72;;;;;;;24.30;44.26;99542.03;5047612;28;20028;-57
2022/06/16 05:07:23;;;;;;;10.50;4.78;;;;;;;24.64;42.98;99551.31;5047294;28;20329;-57
2022/06/16 05:09:48;;;;;;;10.07;4.70;;;;;;;25.26;41.66;99562.78;5050861;28;20044;-57
2022/06/16 05:12:14;;;;;;;12.00;4.30;;;;;;;26.19;39.26;99563.53;5066877;28;20021;-57
2022/06/16 05:14:39;;;;;;;8.63;4.50;;;;;;;22.01;48.24;99569.38;5067003;28;20178;-57
2022/06/16 05:17:05;;;;;;;12.70;5.28;;;;;;;20.10;53.84;99575.38;5067717;28;20491;-57
2022/06/16 05:19:32;;;;;;;10.70;5.00;;;;;;;22.24;49.10;99564.78;5070729;28;20056;-57
2022/06/16 05:22:00;;;;;;;11.73;4.90;;;;;;;23.41;46.23;99571.69;5053394;28;20029;-57
2022/06/16 05:24:26;;;;;;;12.07;5.15;;;;;;;24.19;44.68;99575.53;5068926;28;20484;-57
2022/06/16 05:26:51;;;;;;;9.93;4.50;;;;;;;25.14;42.70;99579.94;5070226;28;20037;-57
2022/06/16 05:29:19;;;;;;;11.50;4.43;;;;;;;25.35;41.97;99591.78;5051176;28;20028;-57
2022/06/16 05:31:44;;;;;;;10.27;4.20;;;;;;;26.11;40.56;99587.19;5052373;28;20031;-57
2022/06/16 05:34:10;;;;;;;7.93;4.70;;;;;;;26.16;40.37;99591.66;5069218;28;20021;-57
2022/06/16 05:36:35;;;;;;;9.52;4.65;;;;;;;25.61;42.35;99593.56;5068951;28;20264;-57
2022/06/16 05:39:00;;;;;;;13.27;4.65;;;;;;;25.44;41.44;99601.91;5069906;28;20028;-57
2022/06/16 05:41:26;;;;;;;11.60;4.80;;;;;;;24.06;44.50;99596.50;5070558;28;20123;-58
2022/06/16 05:43:51;;;;;;;9.18;4.97;;;;;;;25.06;42.76;99611.75;5070661;28;20097;-57
2022/06/16 05:46:19;;;;;;;13.25;5.03;;;;;;;26.07;41.09;99605.47;5068619;28;20020;-57
2022/06/16 05:48:44;;;;;;;13.30;5.35;;;;;;;24.88;42.75;99600.03;5041153;28;20029;-56
2022/06/16 05:51:11;;;;;;;9.00;4.93;;;;;;;24.97;42.85;99605.50;5070683;28;20376;-57
2022/06/16 05:53:37;;;;;;;8.65;4.68;;;;;;;26.55;40.29;99608.75;5049499;28;20025;-57
2022/06/16 05:56:03;;;;;;;11.30;4.93;;;;;;;27.58;38.33;99603.03;5069955;28;20024;-57
2022/06/16 05:58:28;;;;;;;10.05;4.63;;;;;;;26.78;39.23;99607.16;5070060;28;20604;-57
2022/06/16 06:00:53;;;;;;;15.90;4.95;;;;;;;27.43;37.80;99603.75;5069982;28;20039;-57
2022/06/16 06:03:19;;;;;;;11.98;5.13;;;;;;;27.75;36.86;99607.50;5070561;28;20398;-57
2022/06/16 06:05:44;;;;;;;15.40;5.32;;;;;;;27.53;37.65;99606.03;5069247;28;20419;-57
2022/06/16 06:16:35;;;;;;;11.48;4.78;;;;;;;26.43;39.25;99624.03;5068873;28;20075;-57
2022/06/16 06:19:23;;;;;;;10.45;4.60;;;;;;;27.77;37.31;99618.16;5046910;28;20037;-57
2022/06/16 06:22:00;;;;;;;12.38;4.60;;;;;;;26.84;38.83;99619.56;5064257;28;20551;-57
2022/06/16 06:24:47;;;;;;;11.10;5.13;;;;;;;25.66;40.83;99634.53;5068517;28;20029;-57
2022/06/16 06:27:35;;;;;;;11.73;4.70;;;;;;;25.80;40.66;99629.56;5065580;28;20115;-57
2022/06/16 06:30:01;;;;;;;10.38;5.38;;;;;;;25.95;40.54;99646.59;5046322;28;20040;-57
2022/06/16 06:32:27;;;;;;;11.35;5.07;;;;;;;25.06;42.17;99641.94;5036518;28;20033;-57
2022/06/16 06:34:52;;;;;;;11.70;5.20;;;;;;;26.33;40.30;99640.94;5067627;28;20032;-56
2022/06/16 06:37:20;;;;;;;14.02;4.75;;;;;;;26.59;39.45;99648.16;5068850;28;20329;-57
2022/06/16 06:39:45;;;;;;;16.60;5.10;;;;;;;25.52;42.15;99651.22;5067490;28;20517;-56
2022/06/16 06:42:11;;;;;;;14.10;5.32;;;;;;;25.84;40.83;99648.94;5068849;28;20017;-57
2022/06/16 06:44:36;;;;;;;15.55;6.00;;;;;;;26.04;40.34;99645.41;5067026;28;20381;-57
2022/06/16 06:47:02;;;;;;;16.80;5.47;;;;;;;26.53;39.45;99649.50;5069729;28;20059;-57
2022/06/16 06:49:27;;;;;;;13.20;5.80;;;;;;;26.07;39.67;99651.38;5067899;28;20036;-57
2022/06/16 06:51:53;;;;;;;15.25;5.40;;;;;;;26.77;38.50;99641.31;5068694;28;20025;-57
2022/06/16 06:54:18;;;;;;;11.73;5.95;;;;;;;26.84;38.74;99649.81;5066507;28;20337;-56
2022/06/16 06:56:44;;;;;;;17.15;5.43;;;;;;;27.26;38.32;99646.91;5068741;28;20366;-56
2022/06/16 06:59:13;;;;;;;10.95;5.45;;;;;;;26.22;39.74;99661.72;5037737;28;20020;-56
2022/06/16 07:01:39;;;;;;;12.68;5.47;;;;;;;27.85;37.18;99653.84;5049761;28;20012;-57
2022/06/16 07:04:04;;;;;;;15.85;5.80;;;;;;;27.11;38.22;99653.06;5067150;28;20032;-57
2022/06/16 07:06:30;;;;;;;16.55;5.72;;;;;;;28.45;35.94;99661.47;5069174;28;20029;-57
2022/06/16 07:08:56;;;;;;;15.25;5.43;;;;;;;27.15;38.18;99659.47;5065991;28;20078;-57
2022/06/16 07:11:21;;;;;;;15.68;5.32;;;;;;;26.76;38.71;99675.47;5066939;28;20036;-57
2022/06/16 07:13:47;;;;;;;12.57;5.32;;;;;;;26.56;39.01;99671.63;5068622;28;20032;-57
2022/06/16 07:16:12;;;;;;;16.27;5.15;;;;;;;28.94;35.22;99678.56;5067918;28;20021;-55
2022/06/16 07:18:37;;;;;;;14.80;5.45;;;;;;;28.57;35.51;99680.72;5050242;28;20425;-54
2022/06/16 07:21:04;;;;;;;12.98;4.97;;;;;;;27.13;38.10;99686.50;5048716;28;20471;-57
2022/06/16 07:23:29;;;;;;;11.73;4.93;;;;;;;27.00;38.08;99684.91;5067335;28;20024;-57
2022/06/16 07:25:54;;;;;;;11.02;4.85;;;;;;;27.74;36.34;99688.50;5067307;28;20028;-58
2022/06/16 07:28:20;;;;;;;11.90;5.00;;;;;;;27.92;36.14;99691.81;5067695;28;20391;-56
2022/06/16 07:30:46;;;;;;;14.13;5.10;;;;;;;27.68;36.44;99689.88;5067805;28;20033;-57
2022/06/16 07:33:12;;;;;;;9.82;4.95;;;;;;;27.57;36.66;99686.78;5067895;28;20378;-57
2022/06/16 07:35:40;;;;;;;9.20;4.22;;;;;;;27.41;37.30;99688.63;5066572;28;20028;-57
2022/06/16 07:38:05;;;;;;;12.32;4.93;;;;;;;28.01;35.97;99689.75;5062995;28;20043;-57
2022/06/16 07:40:31;;;;;;;10.63;4.55;;;;;;;28.28;35.90;99698.38;5066534;28;20221;-58
2022/06/16 07:42:57;;;;;;;15.48;5.03;;;;;;;26.84;38.15;99698.50;5049289;28;20024;-57
2022/06/16 07:45:26;;;;;;;9.73;4.85;;;;;;;26.32;38.49;99701.72;5067958;28;20459;-57
2022/06/16 07:47:52;;;;;;;14.20;5.28;;;;;;;26.47;38.63;99688.16;5066632;28;20021;-57
2022/06/16 07:50:17;;;;;;;10.30;4.32;;;;;;;25.92;39.85;99703.00;5055099;28;20025;-58
2022/06/16 07:52:43;;;;;;;13.13;4.60;;;;;;;27.86;37.35;99704.25;5066643;28;20021;-57
2022/06/16 07:55:09;;;;;;;10.85;4.57;;;;;;;27.87;36.41;99708.59;5066800;28;20036;-57
2022/06/16 07:57:42;;;;;;;11.05;4.35;;;;;;;28.01;36.82;99711.78;5067438;28;20039;-58
2022/06/16 08:00:08;;;;;;;13.05;4.75;;;;;;;29.01;35.14;99706.31;5066806;28;20024;-56
2022/06/16 08:02:33;;;;;;;11.90;4.72;;;;;;;28.51;35.42;99707.75;5065817;28;20108;-55
2022/06/16 08:04:59;;;;;;;11.30;4.35;;;;;;;28.06;36.01;99714.31;5060309;28;20020;-55
2022/06/16 08:07:24;;;;;;;14.75;4.43;;;;;;;28.29;36.35;99722.03;5032765;28;20025;-56
2022/06/16 08:09:50;;;;;;;10.25;4.95;;;;;;;27.49;37.96;99723.50;5064148;28;20045;-57
2022/06/16 08:12:15;;;;;;;15.43;5.20;;;;;;;28.30;36.56;99723.63;5065993;28;20052;-57
2022/06/16 08:14:42;;;;;;;12.65;4.63;;;;;;;28.17;37.20;99720.13;5067786;28;20475;-57
2022/06/16 08:17:10;;;;;;;10.10;4.80;;;;;;;27.19;37.70;99731.97;5061468;28;20029;-57
2022/06/16 08:19:37;;;;;;;15.90;4.95;;;;;;;27.89;37.19;99728.34;5050002;28;20025;-57
2022/06/16 08:22:03;;;;;;;9.98;4.60;;;;;;;27.57;37.99;99722.59;5066954;28;20024;-57
2022/06/16 08:24:29;;;;;;;15.00;4.90;;;;;;;26.73;38.89;99731.13;5066588;28;20378;-57
2022/06/16 08:26:54;;;;;;;9.30;4.70;;;;;;;27.49;37.62;99731.78;5048395;28;20032;-57
2022/06/16 08:29:20;;;;;;;10.65;4.63;;;;;;;27.58;38.28;99732.44;5067173;28;20021;-57
2022/06/16 08:31:45;;;;;;;11.48;5.07;;;;;;;27.69;37.53;99736.34;5066648;28;20028;-57
2022/06/16 08:34:11;;;;;;;13.85;5.00;;;;;;;28.60;36.35;99730.44;5067593;28;20368;-56
2022/06/16 08:36:37;;;;;;;10.70;4.35;;;;;;;27.98;37.33;99740.00;5021794;28;20056;-57
2022/06/16 08:39:04;;;;;;;12.00;4.60;;;;;;;28.18;37.11;99739.06;5066458;28;20029;-57
2022/06/16 08:42:25;;;;;;;9.18;4.82;;;;;;;27.44;37.78;99748.50;5065696;28;20021;-57
2022/06/16 08:45:13;;;;;;;11.80;4.65;;;;;;;26.67;38.99;99736.03;5023997;28;20063;-57
2022/06/16 08:47:44;;;;;;;7.35;3.97;;;;;;;28.09;36.71;99745.88;5049669;28;20090;-58
2022/06/16 08:50:33;;;;;;;7.70;4.57;;;;;;;27.32;37.03;99750.09;5049388;28;20513;-60
2022/06/16 08:53:06;;;;;;;15.43;4.88;;;;;;;27.05;37.87;99739.69;5069131;28;20060;-61
2022/06/16 08:55:38;;;;;;;7.65;4.10;;;;;;;27.19;37.92;99751.22;5070781;28;20391;-57
2022/06/16 08:58:08;;;;;;;9.88;4.47;;;;;;;27.36;37.50;99746.66;5040052;28;20029;-56
2022/06/16 09:00:39;;;;;;;9.20;3.83;;;;;;;27.89;37.36;99747.63;5051279;28;20441;-56
2022/06/16 09:03:04;;;;;;;10.95;4.15;;;;;;;28.04;36.01;99751.63;5051939;28;20021;-56
2022/06/16 09:05:36;;;;;;;10.40;4.28;;;;;;;27.39;36.78;99748.75;5070566;28;20044;-57
2022/06/16 09:08:32;;;;;;;11.75;4.70;;;;;;;26.62;38.25;99757.44;5063930;28;20438;-56
2022/06/16 09:11:27;;;;;;;12.80;4.47;;;;;;;26.76;38.88;99755.22;5067723;28;20052;-57
2022/06/16 09:14:01;;;;;;;10.98;4.15;;;;;;;27.04;38.10;99757.34;5023603;28;20032;-57
2022/06/16 09:16:58;;;;;;;9.55;4.60;;;;;;;28.04;35.51;99771.69;5069287;28;20037;-57
2022/06/16 09:19:49;;;;;;;6.72;3.90;;;;;;;27.59;36.41;99769.84;5053558;28;20044;-57
2022/06/16 09:22:30;;;;;;;11.55;4.57;;;;;;;28.03;36.23;99763.75;5048815;28;20640;-56
2022/06/16 09:25:13;;;;;;;9.77;3.97;;;;;;;28.35;35.38;99759.22;5068694;28;20032;-57
2022/06/16 09:27:55;;;;;;;20.77;4.90;;;;;;;28.63;33.84;99758.47;5066557;28;20119;-57
2022/06/16 09:30:24;;;;;;;12.27;4.35;;;;;;;28.46;34.60;99765.91;5043176;28;20518;-57
2022/06/16 09:33:10;;;;;;;9.05;4.22;;;;;;;27.69;35.13;99774.09;5050263;28;20035;-57
2022/06/16 09:35:42;;;;;;;13.73;4.60;;;;;;;28.11;33.53;99769.16;5052108;28;20418;-56
2022/06/16 09:38:13;;;;;;;19.40;4.60;;;;;;;28.10;33.24;99775.81;5062814;28;20115;-56
2022/06/16 09:41:04;;;;;;;9.25;4.45;;;;;;;27.88;33.36;99776.28;5047501;28;20478;-57
2022/06/16 09:43:37;;;;;;;13.68;4.47;;;;;;;28.56;31.74;99789.41;5045173;28;20395;-57
2022/06/16 09:46:08;;;;;;;11.18;4.38;;;;;;;27.64;32.79;99791.66;5051772;28;20033;-56
2022/06/16 09:48:41;;;;;;;11.05;4.22;;;;;;;27.97;32.29;99796.25;5064013;28;20041;-57
2022/06/16 09:51:27;;;;;;;10.95;4.07;;;;;;;27.52;31.98;99795.19;5051097;28;20344;-57
2022/06/16 09:54:10;;;;;;;10.73;4.47;;;;;;;26.55;34.41;99801.16;5024721;28;20032;-57
2022/06/16 09:56:47;;;;;;;11.85;4.20;;;;;;;27.39;34.28;99801.03;5067554;28;20024;-57
2022/06/16 09:59:16;;;;;;;11.88;4.40;;;;;;;27.77;35.01;99805.41;5044599;28;20033;-57
2022/06/16 10:01:47;;;;;;;8.18;4.40;;;;;;;28.32;33.90;99810.34;5035406;28;20132;-57
2022/06/16 10:04:13;;;;;;;11.13;4.93;;;;;;;27.16;35.99;99814.34;5067973;28;20053;-56
2022/06/16 10:06:51;;;;;;;13.40;5.10;;;;;;;28.10;35.09;99813.59;5067997;28;20509;-57
2022/06/16 10:09:19;;;;;;;15.15;4.45;;;;;;;27.41;35.87;99815.22;5031755;28;20072;-56
2022/06/16 10:11:44;;;;;;;11.43;4.43;;;;;;;28.02;35.08;99823.56;5068765;28;20425;-57
2022/06/16 10:14:49;;;;;;;12.13;4.22;;;;;;;27.87;36.17;99832.53;5069464;28;20024;-57
2022/06/16 10:17:16;;;;;;;10.50;4.80;;;;;;;27.51;36.18;99834.09;5047820;28;20029;-57
2022/06/16 10:19:44;;;;;;;11.13;5.28;;;;;;;26.89;36.17;99833.84;5060707;28;20024;-56
2022/06/16 10:22:14;;;;;;;13.73;5.20;;;;;;;27.04;36.76;99850.88;5041607;28;20055;-57
2022/06/16 10:25:15;;;;;;;12.00;5.00;;;;;;;27.31;35.93;99838.50;5048455;28;20031;-57
2022/06/16 10:27:46;;;;;;;12.88;4.30;;;;;;;27.46;35.35;99835.09;5046978;28;20041;-57
2022/06/16 10:30:21;;;;;;;10.80;4.72;;;;;;;27.71;34.89;99846.94;5068235;28;20074;-56
2022/06/16 10:32:47;;;;;;;17.70;5.15;;;;;;;27.01;35.21;99846.84;5068496;28;20111;-56
2022/06/16 10:35:18;;;;;;;10.05;4.63;;;;;;;27.12;34.85;99841.72;5025334;28;20185;-57
2022/06/16 10:37:45;;;;;;;11.38;4.68;;;;;;;26.48;35.08;99829.13;5067313;28;20622;-56
2022/06/16 10:40:16;;;;;;;11.02;4.78;;;;;;;25.93;35.10;99839.16;5068694;28;20063;-57
2022/06/16 10:42:46;;;;;;;12.75;5.10;;;;;;;25.74;35.30;99845.03;5040330;28;20070;-56
2022/06/16 10:45:11;;;;;;;11.95;4.78;;;;;;;26.45;35.38;99851.78;5040151;28;20021;-56
2022/06/16 10:47:55;;;;;;;10.60;4.68;;;;;;;25.58;36.40;99849.44;5069445;28;20105;-56
2022/06/16 10:50:25;;;;;;;9.82;4.28;;;;;;;26.46;35.30;99862.44;5046677;28;20371;-56
2022/06/16 10:52:52;;;;;;;;;;;;;;;26.83;34.75;99851.72;5050402;28;20036;-56
2022/06/16 10:55:20;;;;;;;12.95;4.82;;;;;;;27.08;35.11;99847.13;5067479;28;19912;-57
2022/06/16 10:58:02;;;;;;;25.13;6.20;;;;;;;27.00;34.61;99855.44;5064710;28;20027;-56
2022/06/16 11:00:32;;;;;;;9.05;4.38;;;;;;;26.33;35.98;99844.25;5068720;28;20024;-57
2022/06/16 11:03:11;;;;;;;10.85;5.28;;;;;;;25.50;36.06;99837.34;5022946;28;20025;-56
2022/06/16 11:05:47;;;;;;;13.15;4.10;;;;;;;26.31;34.22;99840.22;5068245;28;20018;-57
2022/06/16 11:08:13;;;;;;;12.43;4.10;;;;;;;26.43;34.03;99843.91;5021116;28;20048;-56
2022/06/16 11:10:40;;;;;;;11.90;4.15;;;;;;;25.16;34.27;99825.34;5041560;28;20059;-56
2022/06/16 11:13:07;;;;;;;11.48;4.00;;;;;;;25.57;34.18;99831.38;5049617;28;20063;-56
2022/06/16 11:15:33;;;;;;;12.15;3.95;;;;;;;25.88;33.98;99844.81;5045498;28;20056;-56
2022/06/16 11:18:01;;;;;;;8.65;3.53;;;;;;;25.98;33.74;99830.72;5055036;28;20032;-57
2022/06/16 11:20:32;;;;;;;12.30;3.53;;;;;;;26.36;33.06;99843.63;5048346;28;20505;-57
2022/06/16 11:22:58;;;;;;;10.27;3.80;;;;;;;26.75;33.35;99840.75;5067160;28;20023;-56
2022/06/16 11:25:30;;;;;;;10.73;3.15;;;;;;;26.44;33.49;99850.97;5067008;28;20021;-59
2022/06/16 11:28:02;;;;;;;9.57;3.38;;;;;;;25.88;30.93;99839.31;5045486;28;20064;-56
2022/06/16 11:30:45;;;;;;;11.18;3.30;;;;;;;25.58;32.46;99844.75;5068006;28;20047;-57
2022/06/16 11:36:36;;;;;;;9.30;3.45;;;;;;;26.43;31.27;99854.06;5061957;28;20094;-56
2022/06/16 11:39:28;;;;;;;8.10;3.40;;;;;;;26.62;29.74;99851.69;5065463;28;20028;-55
2022/06/16 11:41:54;;;;;;;8.95;3.13;;;;;;;26.55;31.64;99856.13;5057703;28;20024;-55
2022/06/16 11:44:50;;;;;;;8.07;3.13;;;;;;;26.63;32.33;99847.81;5067690;28;20042;-55
2022/06/16 11:47:33;;;;;;;9.82;4.25;;;;;;;25.66;31.42;99837.63;5061199;28;20033;-56
2022/06/16 11:49:59;;;;;;;10.45;2.97;;;;;;;26.51;30.58;99833.16;5066775;28;20386;-55
2022/06/16 11:52:40;;;;;;;11.93;6.22;;;;;;;26.27;29.79;99845.59;5067462;28;20028;-55
2022/06/16 11:55:40;;;;;;;10.70;3.65;;;;;;;26.56;30.73;99842.06;5047200;28;20028;-56
2022/06/16 11:58:37;;;;;;;9.63;3.03;;;;;;;26.78;30.77;99843.63;5049237;28;20499;-56
2022/06/16 12:01:26;;;;;;;10.57;3.08;;;;;;;26.93;31.10;99844.97;5063481;28;20047;-55